sensor_id;sensor_type;location;lat;lon;timestamp;temperature;humidity
64012;DHT22;50211;52.768;12.124;2022-09-09T00:01:54;13.60;99.90
64012;DHT22;50211;52.768;12.124;2022-09-09T00:04:33;13.60;99.90
64012;DHT22;50211;52.768;12.124;2022-09-09T00:07:21;13.60;99.90
64012;DHT22;50211;52.768;12.124;2022-09-09T00:10:14;13.70;99.90
64012;DHT22;50211;52.768;12.124;2022-09-09T00:12:50;13.70;99.90
64012;DHT22;50211;52.768;12.124;2022-09-09T00:15:23;13.70;99.90
64012;DHT22;50211;52.768;12.124;2022-09-09T00:18:03;13.70;99.90
64012;DHT22;50211;52.768;12.124;2022-09-09T00:20:48;13.60;99.90
64012;DHT22;50211;52.768;12.124;2022-09-09T00:23:31;13.60;99.90
64012;DHT22;50211;52.768;12.124;2022-09-09T00:26:05;13.50;99.90
64012;DHT22;50211;52.768;12.124;2022-09-09T00:28:39;13.40;99.90
64012;DHT22;50211;52.768;12.124;2022-09-09T00:31:12;13.40;99.90
64012;DHT22;50211;52.768;12.124;2022-09-09T00:33:38;13.30;99.90
64012;DHT22;50211;52.768;12.124;2022-09-09T00:36:15;13.40;99.90
64012;DHT22;50211;52.768;12.124;2022-09-09T00:38:46;13.30;99.90
64012;DHT22;50211;52.768;12.124;2022-09-09T00:41:22;13.30;99.90
64012;DHT22;50211;52.768;12.124;2022-09-09T00:44:00;13.30;99.90
64012;DHT22;50211;52.768;12.124;2022-09-09T00:49:09;13.40;99.90
64012;DHT22;50211;52.768;12.124;2022-09-09T00:51:52;13.40;99.90
64012;DHT22;50211;52.768;12.124;2022-09-09T00:59:48;13.60;99.90
64012;DHT22;50211;52.768;12.124;2022-09-09T01:02:26;13.50;99.90
64012;DHT22;50211;52.768;12.124;2022-09-09T01:04:53;13.50;99.90
64012;DHT22;50211;52.768;12.124;2022-09-09T01:07:19;13.50;99.90
64012;DHT22;50211;52.768;12.124;2022-09-09T01:09:55;13.50;99.90
64012;DHT22;50211;52.768;12.124;2022-09-09T01:12:33;13.50;99.90
64012;DHT22;50211;52.768;12.124;2022-09-09T01:23:11;13.40;99.90
64012;DHT22;50211;52.768;12.124;2022-09-09T01:26:14;13.40;99.90
64012;DHT22;50211;52.768;12.124;2022-09-09T01:28:44;13.40;99.90
64012;DHT22;50211;52.768;12.124;2022-09-09T01:31:15;13.20;99.90
64012;DHT22;50211;52.768;12.124;2022-09-09T01:33:42;13.10;99.90
64012;DHT22;50211;52.768;12.124;2022-09-09T01:36:23;13.10;99.90
64012;DHT22;50211;52.768;12.124;2022-09-09T01:38:52;13.10;99.90
64012;DHT22;50211;52.768;12.124;2022-09-09T01:41:18;13.20;99.90
64012;DHT22;50211;52.768;12.124;2022-09-09T01:43:46;13.20;99.90
64012;DHT22;50211;52.768;12.124;2022-09-09T01:46:13;13.30;99.90
64012;DHT22;50211;52.768;12.124;2022-09-09T01:48:39;13.30;99.90
64012;DHT22;50211;52.768;12.124;2022-09-09T01:51:07;13.40;99.90
64012;DHT22;50211;52.768;12.124;2022-09-09T01:53:32;13.40;99.90
64012;DHT22;50211;52.768;12.124;2022-09-09T02:04:38;13.50;99.90
64012;DHT22;50211;52.768;12.124;2022-09-09T02:07:09;13.50;99.90
64012;DHT22;50211;52.768;12.124;2022-09-09T02:09:37;13.50;99.90
64012;DHT22;50211;52.768;12.124;2022-09-09T02:12:11;13.50;99.90
64012;DHT22;50211;52.768;12.124;2022-09-09T02:14:42;13.50;99.90
64012;DHT22;50211;52.768;12.124;2022-09-09T02:17:11;13.50;99.90
64012;DHT22;50211;52.768;12.124;2022-09-09T02:19:49;13.50;99.90
64012;DHT22;50211;52.768;12.124;2022-09-09T02:22:19;13.50;99.90
64012;DHT22;50211;52.768;12.124;2022-09-09T02:24:47;13.50;99.90
64012;DHT22;50211;52.768;12.124;2022-09-09T02:27:13;13.50;99.90
64012;DHT22;50211;52.768;12.124;2022-09-09T02:29:43;13.50;99.90
64012;DHT22;50211;52.768;12.124;2022-09-09T02:32:15;13.40;99.90
64012;DHT22;50211;52.768;12.124;2022-09-09T02:34:47;13.40;99.90
64012;DHT22;50211;52.768;12.124;2022-09-09T02:37:17;13.40;99.90
64012;DHT22;50211;52.768;12.124;2022-09-09T02:39:43;13.40;99.90
64012;DHT22;50211;52.768;12.124;2022-09-09T02:42:09;13.40;99.90
64012;DHT22;50211;52.768;12.124;2022-09-09T02:44:35;13.40;99.90
64012;DHT22;50211;52.768;12.124;2022-09-09T02:47:26;13.30;99.90
64012;DHT22;50211;52.768;12.124;2022-09-09T02:50:17;13.30;99.90
64012;DHT22;50211;52.768;12.124;2022-09-09T02:55:24;13.30;99.90
64012;DHT22;50211;52.768;12.124;2022-09-09T02:57:55;13.20;99.90
64012;DHT22;50211;52.768;12.124;2022-09-09T03:00:25;13.20;99.90
64012;DHT22;50211;52.768;12.124;2022-09-09T03:02:52;13.20;99.90
64012;DHT22;50211;52.768;12.124;2022-09-09T03:05:19;13.10;99.90
64012;DHT22;50211;52.768;12.124;2022-09-09T03:07:47;13.10;99.90
64012;DHT22;50211;52.768;12.124;2022-09-09T03:10:16;13.10;99.90
64012;DHT22;50211;52.768;12.124;2022-09-09T03:12:43;13.00;99.90
64012;DHT22;50211;52.768;12.124;2022-09-09T03:15:09;13.00;99.90
64012;DHT22;50211;52.768;12.124;2022-09-09T03:17:37;13.00;99.90
64012;DHT22;50211;52.768;12.124;2022-09-09T03:20:05;13.10;99.90
64012;DHT22;50211;52.768;12.124;2022-09-09T03:22:33;13.00;99.90
64012;DHT22;50211;52.768;12.124;2022-09-09T03:25:01;12.90;99.90
64012;DHT22;50211;52.768;12.124;2022-09-09T03:27:28;12.90;99.90
64012;DHT22;50211;52.768;12.124;2022-09-09T03:29:54;12.90;99.90
64012;DHT22;50211;52.768;12.124;2022-09-09T03:32:20;12.90;99.90
64012;DHT22;50211;52.768;12.124;2022-09-09T03:34:47;12.90;99.90
64012;DHT22;50211;52.768;12.124;2022-09-09T03:37:15;12.80;99.90
64012;DHT22;50211;52.768;12.124;2022-09-09T03:39:43;12.80;99.90
64012;DHT22;50211;52.768;12.124;2022-09-09T03:42:08;12.60;99.90
64012;DHT22;50211;52.768;12.124;2022-09-09T03:44:34;12.60;99.90
64012;DHT22;50211;52.768;12.124;2022-09-09T03:46:59;12.50;99.90
64012;DHT22;50211;52.768;12.124;2022-09-09T03:49:28;12.50;99.90
64012;DHT22;50211;52.768;12.124;2022-09-09T03:51:55;12.40;99.90
64012;DHT22;50211;52.768;12.124;2022-09-09T03:54:24;12.40;99.90
64012;DHT22;50211;52.768;12.124;2022-09-09T03:56:49;12.40;99.90
64012;DHT22;50211;52.768;12.124;2022-09-09T03:59:17;12.40;99.90
64012;DHT22;50211;52.768;12.124;2022-09-09T04:01:43;12.50;99.90
64012;DHT22;50211;52.768;12.124;2022-09-09T04:04:09;12.50;99.90
64012;DHT22;50211;52.768;12.124;2022-09-09T04:06:35;12.50;99.90
64012;DHT22;50211;52.768;12.124;2022-09-09T04:09:03;12.60;99.90
64012;DHT22;50211;52.768;12.124;2022-09-09T04:11:28;12.60;99.90
64012;DHT22;50211;52.768;12.124;2022-09-09T04:13:54;12.60;99.90
64012;DHT22;50211;52.768;12.124;2022-09-09T04:16:19;12.60;99.90
64012;DHT22;50211;52.768;12.124;2022-09-09T04:18:46;12.60;99.90
64012;DHT22;50211;52.768;12.124;2022-09-09T04:21:11;12.60;99.90
64012;DHT22;50211;52.768;12.124;2022-09-09T04:23:39;12.70;99.90
64012;DHT22;50211;52.768;12.124;2022-09-09T04:26:08;12.70;99.90
64012;DHT22;50211;52.768;12.124;2022-09-09T04:28:35;12.60;99.90
64012;DHT22;50211;52.768;12.124;2022-09-09T04:31:06;12.60;99.90
64012;DHT22;50211;52.768;12.124;2022-09-09T04:33:32;12.60;99.90
64012;DHT22;50211;52.768;12.124;2022-09-09T04:36:00;12.50;99.90
64012;DHT22;50211;52.768;12.124;2022-09-09T04:38:26;12.40;99.90
64012;DHT22;50211;52.768;12.124;2022-09-09T04:40:52;12.30;99.90
64012;DHT22;50211;52.768;12.124;2022-09-09T04:43:19;12.20;99.90
64012;DHT22;50211;52.768;12.124;2022-09-09T04:45:48;12.10;99.90
64012;DHT22;50211;52.768;12.124;2022-09-09T04:48:14;12.10;99.90
64012;DHT22;50211;52.768;12.124;2022-09-09T04:50:39;12.00;99.90
64012;DHT22;50211;52.768;12.124;2022-09-09T04:53:06;12.00;99.90
64012;DHT22;50211;52.768;12.124;2022-09-09T04:55:32;11.90;99.90
64012;DHT22;50211;52.768;12.124;2022-09-09T04:58:04;12.00;99.90
64012;DHT22;50211;52.768;12.124;2022-09-09T05:00:30;12.00;99.90
64012;DHT22;50211;52.768;12.124;2022-09-09T05:02:56;12.00;99.90
64012;DHT22;50211;52.768;12.124;2022-09-09T05:05:24;12.00;99.90
64012;DHT22;50211;52.768;12.124;2022-09-09T05:07:50;12.10;99.90
64012;DHT22;50211;52.768;12.124;2022-09-09T05:10:16;12.10;99.90
64012;DHT22;50211;52.768;12.124;2022-09-09T05:12:51;12.10;99.90
64012;DHT22;50211;52.768;12.124;2022-09-09T05:15:17;12.10;99.90
64012;DHT22;50211;52.768;12.124;2022-09-09T05:17:42;12.20;99.90
64012;DHT22;50211;52.768;12.124;2022-09-09T05:20:08;12.20;99.90
64012;DHT22;50211;52.768;12.124;2022-09-09T05:22:34;12.20;99.90
64012;DHT22;50211;52.768;12.124;2022-09-09T05:24:59;12.30;99.90
64012;DHT22;50211;52.768;12.124;2022-09-09T05:27:26;12.30;99.90
64012;DHT22;50211;52.768;12.124;2022-09-09T05:29:51;12.40;99.90
64012;DHT22;50211;52.768;12.124;2022-09-09T05:32:17;12.40;99.90
64012;DHT22;50211;52.768;12.124;2022-09-09T05:34:42;12.50;99.90
64012;DHT22;50211;52.768;12.124;2022-09-09T05:37:08;12.50;99.90
64012;DHT22;50211;52.768;12.124;2022-09-09T05:39:34;12.50;99.90
64012;DHT22;50211;52.768;12.124;2022-09-09T05:42:01;12.50;99.90
64012;DHT22;50211;52.768;12.124;2022-09-09T05:44:28;12.60;99.90
64012;DHT22;50211;52.768;12.124;2022-09-09T05:46:54;12.60;99.90
64012;DHT22;50211;52.768;12.124;2022-09-09T05:49:19;12.60;99.90
64012;DHT22;50211;52.768;12.124;2022-09-09T05:51:45;12.60;99.90
64012;DHT22;50211;52.768;12.124;2022-09-09T05:54:11;12.60;99.90
64012;DHT22;50211;52.768;12.124;2022-09-09T05:56:40;12.70;99.90
64012;DHT22;50211;52.768;12.124;2022-09-09T05:59:05;12.80;99.90
64012;DHT22;50211;52.768;12.124;2022-09-09T06:01:34;12.80;99.90
64012;DHT22;50211;52.768;12.124;2022-09-09T06:03:59;12.90;99.90
64012;DHT22;50211;52.768;12.124;2022-09-09T06:06:27;13.00;99.90
64012;DHT22;50211;52.768;12.124;2022-09-09T06:08:56;13.10;99.90
64012;DHT22;50211;52.768;12.124;2022-09-09T06:11:28;13.20;99.90
64012;DHT22;50211;52.768;12.124;2022-09-09T06:13:56;13.40;99.90
64012;DHT22;50211;52.768;12.124;2022-09-09T06:16:24;13.40;99.90
64012;DHT22;50211;52.768;12.124;2022-09-09T06:18:50;13.50;99.90
64012;DHT22;50211;52.768;12.124;2022-09-09T06:21:18;13.60;99.90
64012;DHT22;50211;52.768;12.124;2022-09-09T06:23:44;13.60;99.90
64012;DHT22;50211;52.768;12.124;2022-09-09T06:28:37;13.90;99.90
64012;DHT22;50211;52.768;12.124;2022-09-09T06:31:05;14.10;99.90
64012;DHT22;50211;52.768;12.124;2022-09-09T06:33:32;14.20;99.90
64012;DHT22;50211;52.768;12.124;2022-09-09T06:36:00;14.30;99.90
64012;DHT22;50211;52.768;12.124;2022-09-09T06:38:26;14.40;99.90
64012;DHT22;50211;52.768;12.124;2022-09-09T06:40:57;14.50;99.90
64012;DHT22;50211;52.768;12.124;2022-09-09T06:43:24;14.70;99.90
64012;DHT22;50211;52.768;12.124;2022-09-09T06:46:01;14.80;99.90
64012;DHT22;50211;52.768;12.124;2022-09-09T06:48:27;15.10;99.90
64012;DHT22;50211;52.768;12.124;2022-09-09T06:51:19;15.20;99.90
64012;DHT22;50211;52.768;12.124;2022-09-09T06:53:46;15.50;99.90
64012;DHT22;50211;52.768;12.124;2022-09-09T06:56:30;15.70;99.90
64012;DHT22;50211;52.768;12.124;2022-09-09T06:58:57;15.80;99.90
64012;DHT22;50211;52.768;12.124;2022-09-09T07:01:32;15.90;99.90
64012;DHT22;50211;52.768;12.124;2022-09-09T07:03:58;16.00;99.90
64012;DHT22;50211;52.768;12.124;2022-09-09T07:06:35;15.90;99.90
64012;DHT22;50211;52.768;12.124;2022-09-09T07:09:09;15.90;99.90
64012;DHT22;50211;52.768;12.124;2022-09-09T07:11:44;15.80;99.90
64012;DHT22;50211;52.768;12.124;2022-09-09T07:14:10;15.80;99.90
64012;DHT22;50211;52.768;12.124;2022-09-09T07:16:40;15.80;99.90
64012;DHT22;50211;52.768;12.124;2022-09-09T07:19:05;15.90;99.90
64012;DHT22;50211;52.768;12.124;2022-09-09T07:21:32;15.90;99.90
64012;DHT22;50211;52.768;12.124;2022-09-09T07:23:58;15.90;99.90
64012;DHT22;50211;52.768;12.124;2022-09-09T07:26:26;15.90;99.90
64012;DHT22;50211;52.768;12.124;2022-09-09T07:28:52;15.80;99.90
64012;DHT22;50211;52.768;12.124;2022-09-09T07:31:26;15.80;99.90
64012;DHT22;50211;52.768;12.124;2022-09-09T07:33:52;15.80;99.90
64012;DHT22;50211;52.768;12.124;2022-09-09T07:36:23;15.80;99.90
64012;DHT22;50211;52.768;12.124;2022-09-09T07:38:51;15.80;99.90
64012;DHT22;50211;52.768;12.124;2022-09-09T07:41:26;15.90;99.90
64012;DHT22;50211;52.768;12.124;2022-09-09T07:43:52;15.90;99.90
64012;DHT22;50211;52.768;12.124;2022-09-09T07:46:23;16.00;99.90
64012;DHT22;50211;52.768;12.124;2022-09-09T07:48:53;16.10;99.90
64012;DHT22;50211;52.768;12.124;2022-09-09T07:51:42;16.30;99.90
64012;DHT22;50211;52.768;12.124;2022-09-09T07:54:10;16.40;99.90
64012;DHT22;50211;52.768;12.124;2022-09-09T07:56:36;16.40;99.90
64012;DHT22;50211;52.768;12.124;2022-09-09T07:59:02;16.40;99.90
64012;DHT22;50211;52.768;12.124;2022-09-09T08:01:36;16.40;99.90
64012;DHT22;50211;52.768;12.124;2022-09-09T08:04:06;16.50;99.90
64012;DHT22;50211;52.768;12.124;2022-09-09T08:06:35;16.60;99.90
64012;DHT22;50211;52.768;12.124;2022-09-09T08:09:03;16.90;99.90
64012;DHT22;50211;52.768;12.124;2022-09-09T08:11:30;17.10;99.90
64012;DHT22;50211;52.768;12.124;2022-09-09T08:13:56;17.10;99.90
64012;DHT22;50211;52.768;12.124;2022-09-09T08:16:32;17.20;99.90
64012;DHT22;50211;52.768;12.124;2022-09-09T08:18:58;17.40;99.90
64012;DHT22;50211;52.768;12.124;2022-09-09T08:21:27;17.60;99.90
64012;DHT22;50211;52.768;12.124;2022-09-09T08:23:54;17.60;99.90
64012;DHT22;50211;52.768;12.124;2022-09-09T08:26:21;17.60;99.90
64012;DHT22;50211;52.768;12.124;2022-09-09T08:28:50;17.70;99.90
64012;DHT22;50211;52.768;12.124;2022-09-09T08:31:19;17.90;99.90
64012;DHT22;50211;52.768;12.124;2022-09-09T08:33:45;18.30;99.90
64012;DHT22;50211;52.768;12.124;2022-09-09T08:36:14;18.70;99.90
64012;DHT22;50211;52.768;12.124;2022-09-09T08:38:41;18.70;99.90
64012;DHT22;50211;52.768;12.124;2022-09-09T08:52:23;18.40;99.90
64012;DHT22;50211;52.768;12.124;2022-09-09T08:54:51;18.40;99.90
64012;DHT22;50211;52.768;12.124;2022-09-09T08:57:24;18.30;99.90
64012;DHT22;50211;52.768;12.124;2022-09-09T08:59:55;18.30;99.90
64012;DHT22;50211;52.768;12.124;2022-09-09T09:02:27;18.40;99.90
64012;DHT22;50211;52.768;12.124;2022-09-09T09:08:12;18.70;99.90
64012;DHT22;50211;52.768;12.124;2022-09-09T09:10:47;19.00;99.90
64012;DHT22;50211;52.768;12.124;2022-09-09T09:13:19;19.20;99.90
64012;DHT22;50211;52.768;12.124;2022-09-09T09:15:50;19.40;99.90
64012;DHT22;50211;52.768;12.124;2022-09-09T09:18:17;19.50;99.90
64012;DHT22;50211;52.768;12.124;2022-09-09T09:21:00;19.70;99.90
64012;DHT22;50211;52.768;12.124;2022-09-09T09:23:36;20.10;99.90
64012;DHT22;50211;52.768;12.124;2022-09-09T09:26:09;20.10;99.90
64012;DHT22;50211;52.768;12.124;2022-09-09T09:28:36;20.20;99.90
64012;DHT22;50211;52.768;12.124;2022-09-09T09:31:07;20.30;99.90
64012;DHT22;50211;52.768;12.124;2022-09-09T09:33:50;20.40;99.90
64012;DHT22;50211;52.768;12.124;2022-09-09T09:36:18;20.50;99.90
64012;DHT22;50211;52.768;12.124;2022-09-09T09:38:56;20.40;99.90
64012;DHT22;50211;52.768;12.124;2022-09-09T09:41:41;20.60;99.90
64012;DHT22;50211;52.768;12.124;2022-09-09T09:44:28;21.10;99.90
64012;DHT22;50211;52.768;12.124;2022-09-09T09:49:38;21.00;99.90
64012;DHT22;50211;52.768;12.124;2022-09-09T09:52:05;20.80;99.90
64012;DHT22;50211;52.768;12.124;2022-09-09T09:54:37;20.70;99.90
64012;DHT22;50211;52.768;12.124;2022-09-09T09:57:13;20.60;99.90
64012;DHT22;50211;52.768;12.124;2022-09-09T09:59:40;20.50;99.90
64012;DHT22;50211;52.768;12.124;2022-09-09T10:02:20;20.60;99.90
64012;DHT22;50211;52.768;12.124;2022-09-09T10:04:48;20.70;99.90
64012;DHT22;50211;52.768;12.124;2022-09-09T10:07:21;20.80;99.90
64012;DHT22;50211;52.768;12.124;2022-09-09T10:09:55;21.10;99.90
64012;DHT22;50211;52.768;12.124;2022-09-09T10:15:18;21.10;99.90
64012;DHT22;50211;52.768;12.124;2022-09-09T10:18:08;21.00;99.90
64012;DHT22;50211;52.768;12.124;2022-09-09T10:21:03;20.80;99.90
64012;DHT22;50211;52.768;12.124;2022-09-09T10:23:56;20.70;99.90
64012;DHT22;50211;52.768;12.124;2022-09-09T10:26:35;20.70;99.90
64012;DHT22;50211;52.768;12.124;2022-09-09T10:32:19;20.60;99.90
64012;DHT22;50211;52.768;12.124;2022-09-09T10:35:02;20.70;99.90
64012;DHT22;50211;52.768;12.124;2022-09-09T10:37:50;20.80;99.90
64012;DHT22;50211;52.768;12.124;2022-09-09T10:40:33;21.00;99.90
64012;DHT22;50211;52.768;12.124;2022-09-09T10:46:53;21.30;99.90
64012;DHT22;50211;52.768;12.124;2022-09-09T10:49:39;21.50;99.90
64012;DHT22;50211;52.768;12.124;2022-09-09T10:55:22;22.30;99.90
64012;DHT22;50211;52.768;12.124;2022-09-09T10:57:52;22.60;99.90
64012;DHT22;50211;52.768;12.124;2022-09-09T11:00:24;22.50;99.90
64012;DHT22;50211;52.768;12.124;2022-09-09T11:03:00;22.40;99.90
64012;DHT22;50211;52.768;12.124;2022-09-09T11:05:42;22.30;99.90
64012;DHT22;50211;52.768;12.124;2022-09-09T11:08:19;22.30;99.90
64012;DHT22;50211;52.768;12.124;2022-09-09T11:10:51;21.90;99.90
64012;DHT22;50211;52.768;12.124;2022-09-09T11:13:35;21.70;99.90
64012;DHT22;50211;52.768;12.124;2022-09-09T11:16:16;21.60;99.90
64012;DHT22;50211;52.768;12.124;2022-09-09T11:18:46;21.40;99.90
64012;DHT22;50211;52.768;12.124;2022-09-09T11:21:20;21.30;99.90
64012;DHT22;50211;52.768;12.124;2022-09-09T11:23:55;21.30;99.90
64012;DHT22;50211;52.768;12.124;2022-09-09T11:26:30;21.40;99.90
64012;DHT22;50211;52.768;12.124;2022-09-09T11:29:10;21.50;99.90
64012;DHT22;50211;52.768;12.124;2022-09-09T11:31:56;21.50;99.90
64012;DHT22;50211;52.768;12.124;2022-09-09T11:35:03;21.80;99.90
64012;DHT22;50211;52.768;12.124;2022-09-09T11:37:50;21.80;99.90
64012;DHT22;50211;52.768;12.124;2022-09-09T11:40:24;21.60;99.90
64012;DHT22;50211;52.768;12.124;2022-09-09T11:43:18;21.70;99.90
64012;DHT22;50211;52.768;12.124;2022-09-09T11:45:53;21.90;99.90
64012;DHT22;50211;52.768;12.124;2022-09-09T11:48:29;22.00;99.90
64012;DHT22;50211;52.768;12.124;2022-09-09T11:51:02;21.80;99.90
64012;DHT22;50211;52.768;12.124;2022-09-09T11:53:30;21.70;99.90
64012;DHT22;50211;52.768;12.124;2022-09-09T11:56:02;21.70;99.90
64012;DHT22;50211;52.768;12.124;2022-09-09T11:58:34;21.70;99.90
64012;DHT22;50211;52.768;12.124;2022-09-09T12:01:13;21.60;99.90
64012;DHT22;50211;52.768;12.124;2022-09-09T12:03:48;21.60;99.90
64012;DHT22;50211;52.768;12.124;2022-09-09T12:06:26;21.40;99.90
64012;DHT22;50211;52.768;12.124;2022-09-09T12:09:22;21.60;99.90
64012;DHT22;50211;52.768;12.124;2022-09-09T12:11:49;21.90;99.90
64012;DHT22;50211;52.768;12.124;2022-09-09T12:14:54;22.20;99.90
64012;DHT22;50211;52.768;12.124;2022-09-09T12:19:47;22.10;99.90
64012;DHT22;50211;52.768;12.124;2022-09-09T12:25:26;21.80;99.90
64012;DHT22;50211;52.768;12.124;2022-09-09T12:28:04;21.80;99.90
64012;DHT22;50211;52.768;12.124;2022-09-09T12:30:37;21.90;99.90
64012;DHT22;50211;52.768;12.124;2022-09-09T12:33:12;22.00;99.90
64012;DHT22;50211;52.768;12.124;2022-09-09T12:35:43;22.50;99.90
64012;DHT22;50211;52.768;12.124;2022-09-09T12:38:15;22.70;99.90
64012;DHT22;50211;52.768;12.124;2022-09-09T12:40:57;23.00;99.90
64012;DHT22;50211;52.768;12.124;2022-09-09T12:43:24;22.80;99.90
64012;DHT22;50211;52.768;12.124;2022-09-09T12:45:55;22.80;99.90
64012;DHT22;50211;52.768;12.124;2022-09-09T12:48:27;23.00;99.90
64012;DHT22;50211;52.768;12.124;2022-09-09T12:50:53;23.30;99.90
64012;DHT22;50211;52.768;12.124;2022-09-09T12:53:24;23.30;99.90
64012;DHT22;50211;52.768;12.124;2022-09-09T12:56:06;23.30;99.90
64012;DHT22;50211;52.768;12.124;2022-09-09T12:58:36;23.40;99.90
64012;DHT22;50211;52.768;12.124;2022-09-09T13:01:04;23.20;99.90
64012;DHT22;50211;52.768;12.124;2022-09-09T13:03:31;22.80;99.90
64012;DHT22;50211;52.768;12.124;2022-09-09T13:06:12;23.00;99.90
64012;DHT22;50211;52.768;12.124;2022-09-09T13:08:39;23.30;99.90
64012;DHT22;50211;52.768;12.124;2022-09-09T13:11:19;23.10;99.90
64012;DHT22;50211;52.768;12.124;2022-09-09T13:13:52;23.00;99.90
64012;DHT22;50211;52.768;12.124;2022-09-09T13:16:25;22.80;99.90
64012;DHT22;50211;52.768;12.124;2022-09-09T13:18:51;22.50;99.90
64012;DHT22;50211;52.768;12.124;2022-09-09T13:21:17;22.40;99.90
64012;DHT22;50211;52.768;12.124;2022-09-09T13:23:49;22.30;99.90
64012;DHT22;50211;52.768;12.124;2022-09-09T13:26:25;22.40;99.90
64012;DHT22;50211;52.768;12.124;2022-09-09T13:28:53;22.40;99.90
64012;DHT22;50211;52.768;12.124;2022-09-09T13:31:35;22.40;99.90
64012;DHT22;50211;52.768;12.124;2022-09-09T13:34:13;22.20;99.90
64012;DHT22;50211;52.768;12.124;2022-09-09T13:36:39;22.20;99.90
64012;DHT22;50211;52.768;12.124;2022-09-09T13:39:15;22.10;99.90
64012;DHT22;50211;52.768;12.124;2022-09-09T13:41:43;21.90;99.90
64012;DHT22;50211;52.768;12.124;2022-09-09T13:44:25;21.80;99.90
64012;DHT22;50211;52.768;12.124;2022-09-09T13:47:20;21.80;99.90
64012;DHT22;50211;52.768;12.124;2022-09-09T13:49:47;21.70;99.90
64012;DHT22;50211;52.768;12.124;2022-09-09T13:52:17;21.70;99.90
64012;DHT22;50211;52.768;12.124;2022-09-09T13:54:50;21.60;99.90
64012;DHT22;50211;52.768;12.124;2022-09-09T13:57:24;21.50;99.90
64012;DHT22;50211;52.768;12.124;2022-09-09T13:59:51;21.50;99.90
64012;DHT22;50211;52.768;12.124;2022-09-09T14:02:17;21.40;99.90
64012;DHT22;50211;52.768;12.124;2022-09-09T14:04:43;21.30;99.90
64012;DHT22;50211;52.768;12.124;2022-09-09T14:07:13;21.30;99.90
64012;DHT22;50211;52.768;12.124;2022-09-09T14:09:40;21.20;99.90
64012;DHT22;50211;52.768;12.124;2022-09-09T14:12:11;21.10;99.90
64012;DHT22;50211;52.768;12.124;2022-09-09T14:14:37;21.00;99.90
64012;DHT22;50211;52.768;12.124;2022-09-09T14:17:04;21.00;99.90
64012;DHT22;50211;52.768;12.124;2022-09-09T14:19:30;21.00;99.90
64012;DHT22;50211;52.768;12.124;2022-09-09T14:21:56;21.00;99.90
64012;DHT22;50211;52.768;12.124;2022-09-09T14:24:22;20.90;99.90
64012;DHT22;50211;52.768;12.124;2022-09-09T14:26:48;20.80;99.90
64012;DHT22;50211;52.768;12.124;2022-09-09T14:29:13;20.70;99.90
64012;DHT22;50211;52.768;12.124;2022-09-09T14:31:39;20.70;99.90
64012;DHT22;50211;52.768;12.124;2022-09-09T14:34:04;20.60;99.90
64012;DHT22;50211;52.768;12.124;2022-09-09T14:36:31;20.60;99.90
64012;DHT22;50211;52.768;12.124;2022-09-09T14:38:57;20.50;99.90
64012;DHT22;50211;52.768;12.124;2022-09-09T14:41:22;20.50;99.90
64012;DHT22;50211;52.768;12.124;2022-09-09T14:43:49;20.40;99.90
64012;DHT22;50211;52.768;12.124;2022-09-09T14:46:16;20.30;99.90
64012;DHT22;50211;52.768;12.124;2022-09-09T14:48:42;20.10;99.90
64012;DHT22;50211;52.768;12.124;2022-09-09T14:51:17;20.00;99.90
64012;DHT22;50211;52.768;12.124;2022-09-09T14:53:44;19.90;99.90
64012;DHT22;50211;52.768;12.124;2022-09-09T14:56:13;19.80;99.90
64012;DHT22;50211;52.768;12.124;2022-09-09T14:58:38;19.50;99.90
64012;DHT22;50211;52.768;12.124;2022-09-09T15:01:05;19.50;99.90
64012;DHT22;50211;52.768;12.124;2022-09-09T15:03:31;19.30;99.90
64012;DHT22;50211;52.768;12.124;2022-09-09T15:05:57;19.30;99.90
64012;DHT22;50211;52.768;12.124;2022-09-09T15:08:24;19.20;99.90
64012;DHT22;50211;52.768;12.124;2022-09-09T15:10:49;19.00;99.90
64012;DHT22;50211;52.768;12.124;2022-09-09T15:13:15;19.00;99.90
64012;DHT22;50211;52.768;12.124;2022-09-09T15:15:42;18.80;99.90
64012;DHT22;50211;52.768;12.124;2022-09-09T15:18:08;18.60;99.90
64012;DHT22;50211;52.768;12.124;2022-09-09T15:20:33;18.50;99.90
64012;DHT22;50211;52.768;12.124;2022-09-09T15:23:00;18.50;99.90
64012;DHT22;50211;52.768;12.124;2022-09-09T15:25:26;18.40;99.90
64012;DHT22;50211;52.768;12.124;2022-09-09T15:27:52;18.30;99.90
64012;DHT22;50211;52.768;12.124;2022-09-09T15:30:17;18.20;99.90
64012;DHT22;50211;52.768;12.124;2022-09-09T15:32:42;18.20;99.90
64012;DHT22;50211;52.768;12.124;2022-09-09T15:35:08;18.30;99.90
64012;DHT22;50211;52.768;12.124;2022-09-09T15:37:33;18.40;99.90
64012;DHT22;50211;52.768;12.124;2022-09-09T15:39:59;18.60;99.90
64012;DHT22;50211;52.768;12.124;2022-09-09T15:42:26;18.70;99.90
64012;DHT22;50211;52.768;12.124;2022-09-09T15:44:51;18.70;99.90
64012;DHT22;50211;52.768;12.124;2022-09-09T15:47:17;18.70;99.90
64012;DHT22;50211;52.768;12.124;2022-09-09T15:49:43;18.90;99.90
64012;DHT22;50211;52.768;12.124;2022-09-09T15:52:09;18.90;99.90
64012;DHT22;50211;52.768;12.124;2022-09-09T15:54:36;19.10;99.90
64012;DHT22;50211;52.768;12.124;2022-09-09T15:57:06;19.20;99.90
64012;DHT22;50211;52.768;12.124;2022-09-09T15:59:32;19.20;99.90
64012;DHT22;50211;52.768;12.124;2022-09-09T16:01:58;19.30;99.90
64012;DHT22;50211;52.768;12.124;2022-09-09T16:04:25;19.30;99.90
64012;DHT22;50211;52.768;12.124;2022-09-09T16:06:56;19.40;99.90
64012;DHT22;50211;52.768;12.124;2022-09-09T16:09:23;19.40;99.90
64012;DHT22;50211;52.768;12.124;2022-09-09T16:11:49;19.40;99.90
64012;DHT22;50211;52.768;12.124;2022-09-09T16:14:15;19.40;99.90
64012;DHT22;50211;52.768;12.124;2022-09-09T16:16:41;19.50;99.90
64012;DHT22;50211;52.768;12.124;2022-09-09T16:19:09;19.50;99.90
64012;DHT22;50211;52.768;12.124;2022-09-09T16:21:49;19.40;99.90
64012;DHT22;50211;52.768;12.124;2022-09-09T16:24:17;19.40;99.90
64012;DHT22;50211;52.768;12.124;2022-09-09T16:26:45;19.20;99.90
64012;DHT22;50211;52.768;12.124;2022-09-09T16:29:12;19.20;99.90
64012;DHT22;50211;52.768;12.124;2022-09-09T16:31:38;19.10;99.90
64012;DHT22;50211;52.768;12.124;2022-09-09T16:34:05;19.00;99.90
64012;DHT22;50211;52.768;12.124;2022-09-09T16:36:33;18.80;99.90
64012;DHT22;50211;52.768;12.124;2022-09-09T16:39:04;18.70;99.90
64012;DHT22;50211;52.768;12.124;2022-09-09T16:41:30;18.50;99.90
64012;DHT22;50211;52.768;12.124;2022-09-09T16:43:58;18.50;99.90